sensor_id;sensor_type;location;lat;lon;timestamp;temperature;humidity
2967;DHT22;1493;51.496;7.210;2023-11-21T00:00:34;7.80;99.90
2967;DHT22;1493;51.496;7.210;2023-11-21T00:03:01;7.80;99.90
2967;DHT22;1493;51.496;7.210;2023-11-21T00:05:27;7.90;99.90
2967;DHT22;1493;51.496;7.210;2023-11-21T00:07:54;7.90;99.90
2967;DHT22;1493;51.496;7.210;2023-11-21T00:10:21;7.90;99.90
2967;DHT22;1493;51.496;7.210;2023-11-21T00:12:48;7.90;99.90
2967;DHT22;1493;51.496;7.210;2023-11-21T00:15:15;7.90;99.90
2967;DHT22;1493;51.496;7.210;2023-11-21T00:17:43;8.00;99.90
2967;DHT22;1493;51.496;7.210;2023-11-21T00:20:10;7.90;99.90
2967;DHT22;1493;51.496;7.210;2023-11-21T00:22:38;8.00;99.90
2967;DHT22;1493;51.496;7.210;2023-11-21T00:25:06;8.00;99.90
2967;DHT22;1493;51.496;7.210;2023-11-21T00:27:34;8.00;99.90
2967;DHT22;1493;51.496;7.210;2023-11-21T00:30:02;8.10;99.90
2967;DHT22;1493;51.496;7.210;2023-11-21T00:32:30;8.10;99.90
2967;DHT22;1493;51.496;7.210;2023-11-21T00:34:59;8.10;99.90
2967;DHT22;1493;51.496;7.210;2023-11-21T00:37:26;8.20;99.90
2967;DHT22;1493;51.496;7.210;2023-11-21T00:39:52;8.20;99.90
2967;DHT22;1493;51.496;7.210;2023-11-21T00:42:19;8.20;99.90
2967;DHT22;1493;51.496;7.210;2023-11-21T00:44:47;8.30;99.90
2967;DHT22;1493;51.496;7.210;2023-11-21T00:47:13;8.30;99.90
2967;DHT22;1493;51.496;7.210;2023-11-21T00:49:41;8.40;99.90
2967;DHT22;1493;51.496;7.210;2023-11-21T00:52:10;8.40;99.90
2967;DHT22;1493;51.496;7.210;2023-11-21T00:54:37;8.40;99.90
2967;DHT22;1493;51.496;7.210;2023-11-21T00:57:04;8.50;99.90
2967;DHT22;1493;51.496;7.210;2023-11-21T00:59:31;8.50;99.90
2967;DHT22;1493;51.496;7.210;2023-11-21T01:02:01;8.50;99.90
2967;DHT22;1493;51.496;7.210;2023-11-21T01:04:27;8.50;99.90
2967;DHT22;1493;51.496;7.210;2023-11-21T01:06:57;8.50;99.90
2967;DHT22;1493;51.496;7.210;2023-11-21T01:09:26;8.60;99.90
2967;DHT22;1493;51.496;7.210;2023-11-21T01:11:53;8.50;99.90
2967;DHT22;1493;51.496;7.210;2023-11-21T01:14:20;8.50;99.90
2967;DHT22;1493;51.496;7.210;2023-11-21T01:16:47;8.50;99.90
2967;DHT22;1493;51.496;7.210;2023-11-21T01:19:14;8.50;99.90
2967;DHT22;1493;51.496;7.210;2023-11-21T01:21:41;8.50;99.90
2967;DHT22;1493;51.496;7.210;2023-11-21T01:24:08;8.50;99.90
2967;DHT22;1493;51.496;7.210;2023-11-21T01:26:37;8.50;99.90
2967;DHT22;1493;51.496;7.210;2023-11-21T01:29:03;8.60;99.90
2967;DHT22;1493;51.496;7.210;2023-11-21T01:31:32;8.60;99.90
2967;DHT22;1493;51.496;7.210;2023-11-21T01:33:59;8.60;99.90
2967;DHT22;1493;51.496;7.210;2023-11-21T01:36:30;8.60;99.90
2967;DHT22;1493;51.496;7.210;2023-11-21T01:38:58;8.70;99.90
2967;DHT22;1493;51.496;7.210;2023-11-21T01:41:25;8.70;99.90
2967;DHT22;1493;51.496;7.210;2023-11-21T01:43:55;8.70;99.90
2967;DHT22;1493;51.496;7.210;2023-11-21T01:46:22;8.70;99.90
2967;DHT22;1493;51.496;7.210;2023-11-21T01:48:50;8.80;99.90
2967;DHT22;1493;51.496;7.210;2023-11-21T01:51:16;8.80;99.90
2967;DHT22;1493;51.496;7.210;2023-11-21T01:53:45;8.80;99.90
2967;DHT22;1493;51.496;7.210;2023-11-21T01:56:12;8.80;99.90
2967;DHT22;1493;51.496;7.210;2023-11-21T01:58:39;8.90;99.90
2967;DHT22;1493;51.496;7.210;2023-11-21T02:01:08;8.90;99.90
2967;DHT22;1493;51.496;7.210;2023-11-21T02:03:35;8.90;99.90
2967;DHT22;1493;51.496;7.210;2023-11-21T02:06:02;8.90;99.90
2967;DHT22;1493;51.496;7.210;2023-11-21T02:08:29;8.90;99.90
2967;DHT22;1493;51.496;7.210;2023-11-21T02:10:57;8.90;99.90
2967;DHT22;1493;51.496;7.210;2023-11-21T02:13:23;8.90;99.90
2967;DHT22;1493;51.496;7.210;2023-11-21T02:15:50;9.00;99.90
2967;DHT22;1493;51.496;7.210;2023-11-21T02:18:21;8.90;99.90
2967;DHT22;1493;51.496;7.210;2023-11-21T02:20:48;8.90;99.90
2967;DHT22;1493;51.496;7.210;2023-11-21T02:23:16;8.90;99.90
2967;DHT22;1493;51.496;7.210;2023-11-21T02:25:43;8.90;99.90
2967;DHT22;1493;51.496;7.210;2023-11-21T02:28:10;8.90;99.90
2967;DHT22;1493;51.496;7.210;2023-11-21T02:30:38;8.80;99.90
2967;DHT22;1493;51.496;7.210;2023-11-21T02:33:05;8.80;99.90
2967;DHT22;1493;51.496;7.210;2023-11-21T02:35:32;8.80;99.90
2967;DHT22;1493;51.496;7.210;2023-11-21T02:38:03;8.80;99.90
2967;DHT22;1493;51.496;7.210;2023-11-21T02:40:36;8.80;99.90
2967;DHT22;1493;51.496;7.210;2023-11-21T02:43:03;8.80;99.90
2967;DHT22;1493;51.496;7.210;2023-11-21T02:45:31;8.80;99.90
2967;DHT22;1493;51.496;7.210;2023-11-21T02:47:58;8.80;99.90
2967;DHT22;1493;51.496;7.210;2023-11-21T02:50:25;8.80;99.90
2967;DHT22;1493;51.496;7.210;2023-11-21T02:52:52;8.80;99.90
2967;DHT22;1493;51.496;7.210;2023-11-21T02:55:19;8.80;99.90
2967;DHT22;1493;51.496;7.210;2023-11-21T02:57:47;8.80;99.90
2967;DHT22;1493;51.496;7.210;2023-11-21T03:00:14;8.80;99.90
2967;DHT22;1493;51.496;7.210;2023-11-21T03:02:42;8.80;99.90
2967;DHT22;1493;51.496;7.210;2023-11-21T03:05:09;8.90;99.90
2967;DHT22;1493;51.496;7.210;2023-11-21T03:07:36;8.90;99.90
2967;DHT22;1493;51.496;7.210;2023-11-21T03:10:04;8.90;99.90
2967;DHT22;1493;51.496;7.210;2023-11-21T03:12:31;8.90;99.90
2967;DHT22;1493;51.496;7.210;2023-11-21T03:14:59;8.90;99.90
2967;DHT22;1493;51.496;7.210;2023-11-21T03:17:27;8.90;99.90
2967;DHT22;1493;51.496;7.210;2023-11-21T03:19:55;8.90;99.90
2967;DHT22;1493;51.496;7.210;2023-11-21T03:22:22;8.90;99.90
2967;DHT22;1493;51.496;7.210;2023-11-21T03:24:49;8.90;99.90
2967;DHT22;1493;51.496;7.210;2023-11-21T03:27:16;8.90;99.90
2967;DHT22;1493;51.496;7.210;2023-11-21T03:29:43;8.90;99.90
2967;DHT22;1493;51.496;7.210;2023-11-21T03:32:11;8.90;99.90
2967;DHT22;1493;51.496;7.210;2023-11-21T03:34:53;8.90;99.90
2967;DHT22;1493;51.496;7.210;2023-11-21T03:37:20;8.90;99.90
2967;DHT22;1493;51.496;7.210;2023-11-21T03:39:47;8.90;99.90
2967;DHT22;1493;51.496;7.210;2023-11-21T03:42:14;8.90;99.90
2967;DHT22;1493;51.496;7.210;2023-11-21T03:44:41;8.90;99.90
2967;DHT22;1493;51.496;7.210;2023-11-21T03:47:08;8.90;99.90
2967;DHT22;1493;51.496;7.210;2023-11-21T03:49:36;8.90;99.90
2967;DHT22;1493;51.496;7.210;2023-11-21T03:52:03;8.90;99.90
2967;DHT22;1493;51.496;7.210;2023-11-21T03:54:30;8.90;99.90
2967;DHT22;1493;51.496;7.210;2023-11-21T03:56:56;8.90;99.90
2967;DHT22;1493;51.496;7.210;2023-11-21T03:59:23;9.00;99.90
2967;DHT22;1493;51.496;7.210;2023-11-21T04:01:50;9.00;99.90
2967;DHT22;1493;51.496;7.210;2023-11-21T04:04:17;9.00;99.90
2967;DHT22;1493;51.496;7.210;2023-11-21T04:06:46;9.00;99.90
2967;DHT22;1493;51.496;7.210;2023-11-21T04:09:13;9.00;99.90
2967;DHT22;1493;51.496;7.210;2023-11-21T04:11:40;9.00;99.90
2967;DHT22;1493;51.496;7.210;2023-11-21T04:14:08;9.00;99.90
2967;DHT22;1493;51.496;7.210;2023-11-21T04:16:35;9.00;99.90
2967;DHT22;1493;51.496;7.210;2023-11-21T04:19:02;9.00;99.90
2967;DHT22;1493;51.496;7.210;2023-11-21T04:21:29;8.90;99.90
2967;DHT22;1493;51.496;7.210;2023-11-21T04:23:57;8.90;99.90
2967;DHT22;1493;51.496;7.210;2023-11-21T04:26:24;8.90;99.90
2967;DHT22;1493;51.496;7.210;2023-11-21T04:28:51;8.80;99.90
2967;DHT22;1493;51.496;7.210;2023-11-21T04:31:17;8.80;99.90
2967;DHT22;1493;51.496;7.210;2023-11-21T04:33:44;8.80;99.90
2967;DHT22;1493;51.496;7.210;2023-11-21T04:36:11;8.80;99.90
2967;DHT22;1493;51.496;7.210;2023-11-21T04:38:38;8.80;99.90
2967;DHT22;1493;51.496;7.210;2023-11-21T04:41:07;8.80;99.90
2967;DHT22;1493;51.496;7.210;2023-11-21T04:43:34;8.70;99.90
2967;DHT22;1493;51.496;7.210;2023-11-21T04:46:01;8.70;99.90
2967;DHT22;1493;51.496;7.210;2023-11-21T04:48:28;8.60;99.90
2967;DHT22;1493;51.496;7.210;2023-11-21T04:50:58;8.50;99.90
2967;DHT22;1493;51.496;7.210;2023-11-21T04:53:25;8.50;99.90
2967;DHT22;1493;51.496;7.210;2023-11-21T04:55:52;8.40;99.90
2967;DHT22;1493;51.496;7.210;2023-11-21T04:58:22;8.40;99.90
2967;DHT22;1493;51.496;7.210;2023-11-21T05:00:49;8.30;99.90
2967;DHT22;1493;51.496;7.210;2023-11-21T05:03:16;8.20;99.90
2967;DHT22;1493;51.496;7.210;2023-11-21T05:05:43;8.10;99.90
2967;DHT22;1493;51.496;7.210;2023-11-21T05:08:10;8.10;99.90
2967;DHT22;1493;51.496;7.210;2023-11-21T05:10:37;8.00;99.90
2967;DHT22;1493;51.496;7.210;2023-11-21T05:13:04;8.00;99.90
2967;DHT22;1493;51.496;7.210;2023-11-21T05:15:36;7.90;99.90
2967;DHT22;1493;51.496;7.210;2023-11-21T05:18:04;7.90;99.90
2967;DHT22;1493;51.496;7.210;2023-11-21T05:20:31;7.80;99.90
2967;DHT22;1493;51.496;7.210;2023-11-21T05:22:58;7.80;99.90
2967;DHT22;1493;51.496;7.210;2023-11-21T05:25:25;7.80;99.90
2967;DHT22;1493;51.496;7.210;2023-11-21T05:27:52;7.80;99.90
2967;DHT22;1493;51.496;7.210;2023-11-21T05:30:22;7.90;99.90
2967;DHT22;1493;51.496;7.210;2023-11-21T05:32:50;7.90;99.90
2967;DHT22;1493;51.496;7.210;2023-11-21T05:35:17;7.90;99.90
2967;DHT22;1493;51.496;7.210;2023-11-21T05:37:44;7.90;99.90
2967;DHT22;1493;51.496;7.210;2023-11-21T05:40:11;7.90;99.90
2967;DHT22;1493;51.496;7.210;2023-11-21T05:42:39;7.90;99.90
2967;DHT22;1493;51.496;7.210;2023-11-21T05:45:07;8.00;99.90
2967;DHT22;1493;51.496;7.210;2023-11-21T05:47:37;8.00;99.90
2967;DHT22;1493;51.496;7.210;2023-11-21T05:50:10;8.00;99.90
2967;DHT22;1493;51.496;7.210;2023-11-21T05:52:40;8.00;99.90
2967;DHT22;1493;51.496;7.210;2023-11-21T05:55:08;8.00;99.90
2967;DHT22;1493;51.496;7.210;2023-11-21T05:57:35;8.00;99.90
2967;DHT22;1493;51.496;7.210;2023-11-21T06:00:04;8.00;99.90
2967;DHT22;1493;51.496;7.210;2023-11-21T06:02:37;8.00;99.90
2967;DHT22;1493;51.496;7.210;2023-11-21T06:05:05;8.00;99.90
2967;DHT22;1493;51.496;7.210;2023-11-21T06:07:34;8.00;99.90
2967;DHT22;1493;51.496;7.210;2023-11-21T06:10:01;8.00;99.90
2967;DHT22;1493;51.496;7.210;2023-11-21T06:12:31;8.10;99.90
2967;DHT22;1493;51.496;7.210;2023-11-21T06:15:01;8.10;99.90
2967;DHT22;1493;51.496;7.210;2023-11-21T06:17:29;8.10;99.90
2967;DHT22;1493;51.496;7.210;2023-11-21T06:19:56;8.10;99.90
2967;DHT22;1493;51.496;7.210;2023-11-21T06:22:23;8.20;99.90
2967;DHT22;1493;51.496;7.210;2023-11-21T06:24:51;8.20;99.90
2967;DHT22;1493;51.496;7.210;2023-11-21T06:27:18;8.20;99.90
2967;DHT22;1493;51.496;7.210;2023-11-21T06:29:44;8.20;99.90
2967;DHT22;1493;51.496;7.210;2023-11-21T06:32:13;8.30;99.90
2967;DHT22;1493;51.496;7.210;2023-11-21T06:34:41;8.30;99.90
2967;DHT22;1493;51.496;7.210;2023-11-21T06:37:08;8.30;99.90
2967;DHT22;1493;51.496;7.210;2023-11-21T06:39:35;8.40;99.90
2967;DHT22;1493;51.496;7.210;2023-11-21T06:42:04;8.40;99.90
2967;DHT22;1493;51.496;7.210;2023-11-21T06:44:31;8.40;99.90
2967;DHT22;1493;51.496;7.210;2023-11-21T06:47:00;8.40;99.90
2967;DHT22;1493;51.496;7.210;2023-11-21T06:49:27;8.50;99.90
2967;DHT22;1493;51.496;7.210;2023-11-21T06:51:54;8.50;99.90
2967;DHT22;1493;51.496;7.210;2023-11-21T06:54:21;8.50;99.90
2967;DHT22;1493;51.496;7.210;2023-11-21T06:56:48;8.60;99.90
2967;DHT22;1493;51.496;7.210;2023-11-21T06:59:16;8.60;99.90
2967;DHT22;1493;51.496;7.210;2023-11-21T07:01:43;8.60;99.90
2967;DHT22;1493;51.496;7.210;2023-11-21T07:04:10;8.70;99.90
2967;DHT22;1493;51.496;7.210;2023-11-21T07:06:36;8.70;99.90
2967;DHT22;1493;51.496;7.210;2023-11-21T07:09:03;8.70;99.90
2967;DHT22;1493;51.496;7.210;2023-11-21T07:11:30;8.80;99.90
2967;DHT22;1493;51.496;7.210;2023-11-21T07:13:58;8.80;99.90
2967;DHT22;1493;51.496;7.210;2023-11-21T07:16:26;8.80;99.90
2967;DHT22;1493;51.496;7.210;2023-11-21T07:18:56;8.90;99.90
2967;DHT22;1493;51.496;7.210;2023-11-21T07:21:23;8.90;99.90
2967;DHT22;1493;51.496;7.210;2023-11-21T07:23:50;9.00;99.90
2967;DHT22;1493;51.496;7.210;2023-11-21T07:26:17;9.00;99.90
2967;DHT22;1493;51.496;7.210;2023-11-21T07:28:44;9.10;99.90
2967;DHT22;1493;51.496;7.210;2023-11-21T07:31:11;9.10;99.90
2967;DHT22;1493;51.496;7.210;2023-11-21T07:33:39;9.10;99.90
2967;DHT22;1493;51.496;7.210;2023-11-21T07:36:07;9.20;99.90
2967;DHT22;1493;51.496;7.210;2023-11-21T07:38:36;9.20;99.90
2967;DHT22;1493;51.496;7.210;2023-11-21T07:41:03;9.30;99.90
2967;DHT22;1493;51.496;7.210;2023-11-21T07:43:29;9.30;99.90
2967;DHT22;1493;51.496;7.210;2023-11-21T07:46:00;9.40;99.90
2967;DHT22;1493;51.496;7.210;2023-11-21T07:48:28;9.40;99.90
2967;DHT22;1493;51.496;7.210;2023-11-21T07:50:56;9.40;99.90
2967;DHT22;1493;51.496;7.210;2023-11-21T07:53:24;9.50;99.90
2967;DHT22;1493;51.496;7.210;2023-11-21T07:55:54;9.50;99.90
2967;DHT22;1493;51.496;7.210;2023-11-21T07:58:21;9.50;99.90
2967;DHT22;1493;51.496;7.210;2023-11-21T08:00:49;9.60;99.90
2967;DHT22;1493;51.496;7.210;2023-11-21T08:03:16;9.70;99.90
2967;DHT22;1493;51.496;7.210;2023-11-21T08:05:43;9.70;99.90
2967;DHT22;1493;51.496;7.210;2023-11-21T08:08:11;9.80;99.90
2967;DHT22;1493;51.496;7.210;2023-11-21T08:10:38;9.90;99.90
2967;DHT22;1493;51.496;7.210;2023-11-21T08:13:05;9.90;99.90
2967;DHT22;1493;51.496;7.210;2023-11-21T08:15:34;10.00;99.90
2967;DHT22;1493;51.496;7.210;2023-11-21T08:18:02;10.10;99.90
2967;DHT22;1493;51.496;7.210;2023-11-21T08:20:30;10.20;99.90
2967;DHT22;1493;51.496;7.210;2023-11-21T08:22:56;10.40;99.90
2967;DHT22;1493;51.496;7.210;2023-11-21T08:25:24;10.40;99.90
2967;DHT22;1493;51.496;7.210;2023-11-21T08:27:52;10.50;99.90
2967;DHT22;1493;51.496;7.210;2023-11-21T08:30:19;10.50;99.90
2967;DHT22;1493;51.496;7.210;2023-11-21T08:32:49;10.60;99.90
2967;DHT22;1493;51.496;7.210;2023-11-21T08:35:17;10.60;99.90
2967;DHT22;1493;51.496;7.210;2023-11-21T08:37:43;10.60;99.90
2967;DHT22;1493;51.496;7.210;2023-11-21T08:40:11;10.60;99.90
2967;DHT22;1493;51.496;7.210;2023-11-21T08:42:43;10.60;99.90
2967;DHT22;1493;51.496;7.210;2023-11-21T08:45:11;10.70;99.90
2967;DHT22;1493;51.496;7.210;2023-11-21T08:47:38;10.70;99.90
2967;DHT22;1493;51.496;7.210;2023-11-21T08:50:06;10.60;99.90
2967;DHT22;1493;51.496;7.210;2023-11-21T08:52:33;10.60;99.90
2967;DHT22;1493;51.496;7.210;2023-11-21T08:55:00;10.60;99.90
2967;DHT22;1493;51.496;7.210;2023-11-21T08:57:33;10.60;99.90
2967;DHT22;1493;51.496;7.210;2023-11-21T09:00:02;10.60;99.90
2967;DHT22;1493;51.496;7.210;2023-11-21T09:02:30;10.60;99.90
2967;DHT22;1493;51.496;7.210;2023-11-21T09:04:59;10.60;99.90
2967;DHT22;1493;51.496;7.210;2023-11-21T09:07:28;10.60;99.90
2967;DHT22;1493;51.496;7.210;2023-11-21T09:09:56;10.60;99.90
2967;DHT22;1493;51.496;7.210;2023-11-21T09:12:23;10.70;99.90
2967;DHT22;1493;51.496;7.210;2023-11-21T09:14:50;10.70;99.90
2967;DHT22;1493;51.496;7.210;2023-11-21T09:17:18;10.80;99.90
2967;DHT22;1493;51.496;7.210;2023-11-21T09:19:45;10.80;99.90
2967;DHT22;1493;51.496;7.210;2023-11-21T09:22:15;10.80;99.90
2967;DHT22;1493;51.496;7.210;2023-11-21T09:24:42;10.90;99.90
2967;DHT22;1493;51.496;7.210;2023-11-21T09:27:09;10.90;99.90
2967;DHT22;1493;51.496;7.210;2023-11-21T09:29:36;10.90;99.90
2967;DHT22;1493;51.496;7.210;2023-11-21T09:32:04;10.90;99.90
2967;DHT22;1493;51.496;7.210;2023-11-21T09:34:33;11.00;99.90
2967;DHT22;1493;51.496;7.210;2023-11-21T09:37:01;10.90;99.90
2967;DHT22;1493;51.496;7.210;2023-11-21T09:39:31;10.90;99.90
2967;DHT22;1493;51.496;7.210;2023-11-21T09:42:04;11.00;99.90
2967;DHT22;1493;51.496;7.210;2023-11-21T09:44:39;11.00;99.90
2967;DHT22;1493;51.496;7.210;2023-11-21T09:47:10;11.10;99.90
2967;DHT22;1493;51.496;7.210;2023-11-21T09:49:43;11.10;99.90
2967;DHT22;1493;51.496;7.210;2023-11-21T09:52:18;11.00;99.90
2967;DHT22;1493;51.496;7.210;2023-11-21T09:54:49;10.90;99.90
2967;DHT22;1493;51.496;7.210;2023-11-21T09:57:17;11.00;99.90
2967;DHT22;1493;51.496;7.210;2023-11-21T09:59:45;10.90;99.90
2967;DHT22;1493;51.496;7.210;2023-11-21T10:02:14;11.00;99.90
2967;DHT22;1493;51.496;7.210;2023-11-21T10:04:45;10.90;99.90
2967;DHT22;1493;51.496;7.210;2023-11-21T10:07:16;10.90;99.90
2967;DHT22;1493;51.496;7.210;2023-11-21T10:09:44;10.90;99.90
2967;DHT22;1493;51.496;7.210;2023-11-21T10:12:13;11.00;99.90
2967;DHT22;1493;51.496;7.210;2023-11-21T10:14:42;11.00;99.90
2967;DHT22;1493;51.496;7.210;2023-11-21T10:17:10;11.00;99.90
2967;DHT22;1493;51.496;7.210;2023-11-21T10:19:39;11.00;99.90
2967;DHT22;1493;51.496;7.210;2023-11-21T10:22:07;11.10;99.90
2967;DHT22;1493;51.496;7.210;2023-11-21T10:24:35;11.20;99.90
2967;DHT22;1493;51.496;7.210;2023-11-21T10:27:04;11.20;99.90
2967;DHT22;1493;51.496;7.210;2023-11-21T10:29:31;11.50;99.90
2967;DHT22;1493;51.496;7.210;2023-11-21T10:32:02;11.60;99.90
2967;DHT22;1493;51.496;7.210;2023-11-21T10:34:29;11.80;99.90
2967;DHT22;1493;51.496;7.210;2023-11-21T10:36:56;12.00;99.90
2967;DHT22;1493;51.496;7.210;2023-11-21T10:39:25;12.00;99.90
2967;DHT22;1493;51.496;7.210;2023-11-21T10:41:56;12.10;99.90
2967;DHT22;1493;51.496;7.210;2023-11-21T10:44:23;12.00;99.90
2967;DHT22;1493;51.496;7.210;2023-11-21T10:46:53;11.90;99.90
2967;DHT22;1493;51.496;7.210;2023-11-21T10:49:22;12.00;99.90
2967;DHT22;1493;51.496;7.210;2023-11-21T10:51:50;12.20;99.90
2967;DHT22;1493;51.496;7.210;2023-11-21T10:54:19;12.30;99.90
2967;DHT22;1493;51.496;7.210;2023-11-21T10:56:49;12.30;99.90
2967;DHT22;1493;51.496;7.210;2023-11-21T10:59:17;12.40;99.90
2967;DHT22;1493;51.496;7.210;2023-11-21T11:01:46;12.40;99.90
2967;DHT22;1493;51.496;7.210;2023-11-21T11:04:15;12.40;99.90
2967;DHT22;1493;51.496;7.210;2023-11-21T11:06:44;12.40;99.90
2967;DHT22;1493;51.496;7.210;2023-11-21T11:09:17;12.30;99.90
2967;DHT22;1493;51.496;7.210;2023-11-21T11:11:44;12.30;99.90
2967;DHT22;1493;51.496;7.210;2023-11-21T11:14:13;12.30;99.90
2967;DHT22;1493;51.496;7.210;2023-11-21T11:16:41;12.30;99.90
2967;DHT22;1493;51.496;7.210;2023-11-21T11:19:08;12.20;99.90
2967;DHT22;1493;51.496;7.210;2023-11-21T11:21:45;12.10;99.90
2967;DHT22;1493;51.496;7.210;2023-11-21T11:24:33;12.10;99.90
2967;DHT22;1493;51.496;7.210;2023-11-21T11:27:18;12.00;99.90
2967;DHT22;1493;51.496;7.210;2023-11-21T11:29:56;12.00;99.90
2967;DHT22;1493;51.496;7.210;2023-11-21T11:32:37;11.90;99.90
2967;DHT22;1493;51.496;7.210;2023-11-21T11:35:12;11.90;99.90
2967;DHT22;1493;51.496;7.210;2023-11-21T11:37:42;12.00;99.90
2967;DHT22;1493;51.496;7.210;2023-11-21T11:40:11;11.90;99.90
2967;DHT22;1493;51.496;7.210;2023-11-21T11:42:38;12.00;99.90
2967;DHT22;1493;51.496;7.210;2023-11-21T11:45:18;12.10;99.90
2967;DHT22;1493;51.496;7.210;2023-11-21T11:47:47;12.10;99.90
2967;DHT22;1493;51.496;7.210;2023-11-21T11:50:14;12.00;99.90
2967;DHT22;1493;51.496;7.210;2023-11-21T11:52:43;12.00;99.90
2967;DHT22;1493;51.496;7.210;2023-11-21T11:55:26;12.00;99.90
2967;DHT22;1493;51.496;7.210;2023-11-21T11:57:56;11.90;99.90
2967;DHT22;1493;51.496;7.210;2023-11-21T12:00:35;11.90;99.90
2967;DHT22;1493;51.496;7.210;2023-11-21T12:03:04;11.70;99.90
2967;DHT22;1493;51.496;7.210;2023-11-21T12:05:33;11.70;99.90
2967;DHT22;1493;51.496;7.210;2023-11-21T12:08:02;11.60;99.90
2967;DHT22;1493;51.496;7.210;2023-11-21T12:10:31;11.40;99.90
2967;DHT22;1493;51.496;7.210;2023-11-21T12:12:59;11.40;99.90
2967;DHT22;1493;51.496;7.210;2023-11-21T12:15:27;11.30;99.90
2967;DHT22;1493;51.496;7.210;2023-11-21T12:17:58;11.20;99.90
2967;DHT22;1493;51.496;7.210;2023-11-21T12:20:26;11.10;99.90
2967;DHT22;1493;51.496;7.210;2023-11-21T12:22:54;11.10;99.90
2967;DHT22;1493;51.496;7.210;2023-11-21T12:25:23;11.00;99.90
2967;DHT22;1493;51.496;7.210;2023-11-21T12:27:51;11.00;99.90
2967;DHT22;1493;51.496;7.210;2023-11-21T12:30:20;11.00;99.90
2967;DHT22;1493;51.496;7.210;2023-11-21T12:32:49;11.00;99.90
2967;DHT22;1493;51.496;7.210;2023-11-21T12:35:18;11.10;99.90
2967;DHT22;1493;51.496;7.210;2023-11-21T12:37:47;11.10;99.90
2967;DHT22;1493;51.496;7.210;2023-11-21T12:40:15;11.10;99.90
2967;DHT22;1493;51.496;7.210;2023-11-21T12:42:44;10.80;99.90
2967;DHT22;1493;51.496;7.210;2023-11-21T12:45:19;10.90;99.90
2967;DHT22;1493;51.496;7.210;2023-11-21T12:47:47;10.90;99.90
2967;DHT22;1493;51.496;7.210;2023-11-21T12:50:16;10.90;99.90
2967;DHT22;1493;51.496;7.210;2023-11-21T12:52:47;10.80;99.90
2967;DHT22;1493;51.496;7.210;2023-11-21T12:55:16;10.90;99.90
2967;DHT22;1493;51.496;7.210;2023-11-21T12:57:44;11.00;99.90
2967;DHT22;1493;51.496;7.210;2023-11-21T13:00:13;10.90;99.90
2967;DHT22;1493;51.496;7.210;2023-11-21T13:02:52;10.60;99.90
2967;DHT22;1493;51.496;7.210;2023-11-21T13:05:32;10.70;99.90
2967;DHT22;1493;51.496;7.210;2023-11-21T13:08:01;10.60;99.90
2967;DHT22;1493;51.496;7.210;2023-11-21T13:10:30;10.70;99.90
2967;DHT22;1493;51.496;7.210;2023-11-21T13:12:58;10.70;99.90
2967;DHT22;1493;51.496;7.210;2023-11-21T13:15:26;10.70;99.90
2967;DHT22;1493;51.496;7.210;2023-11-21T13:17:54;10.60;99.90
2967;DHT22;1493;51.496;7.210;2023-11-21T13:20:23;10.50;99.90
2967;DHT22;1493;51.496;7.210;2023-11-21T13:22:52;10.40;99.90
2967;DHT22;1493;51.496;7.210;2023-11-21T13:25:23;10.30;99.90
2967;DHT22;1493;51.496;7.210;2023-11-21T13:27:53;10.40;99.90
2967;DHT22;1493;51.496;7.210;2023-11-21T13:30:20;10.20;99.90
2967;DHT22;1493;51.496;7.210;2023-11-21T13:32:52;10.20;99.90
2967;DHT22;1493;51.496;7.210;2023-11-21T13:35:22;10.20;99.90
2967;DHT22;1493;51.496;7.210;2023-11-21T13:38:02;10.30;99.90
2967;DHT22;1493;51.496;7.210;2023-11-21T13:40:31;10.40;99.90
2967;DHT22;1493;51.496;7.210;2023-11-21T13:43:00;10.40;99.90
2967;DHT22;1493;51.496;7.210;2023-11-21T13:45:30;10.30;99.90
2967;DHT22;1493;51.496;7.210;2023-11-21T13:47:57;10.20;99.90
2967;DHT22;1493;51.496;7.210;2023-11-21T13:50:24;10.30;99.90
2967;DHT22;1493;51.496;7.210;2023-11-21T13:52:58;10.20;99.90
2967;DHT22;1493;51.496;7.210;2023-11-21T13:55:29;10.30;99.90
2967;DHT22;1493;51.496;7.210;2023-11-21T13:57:56;10.30;99.90
2967;DHT22;1493;51.496;7.210;2023-11-21T14:00:24;10.30;99.90
2967;DHT22;1493;51.496;7.210;2023-11-21T14:03:11;10.30;99.90
2967;DHT22;1493;51.496;7.210;2023-11-21T14:05:44;10.40;99.90
2967;DHT22;1493;51.496;7.210;2023-11-21T14:08:14;10.40;99.90
2967;DHT22;1493;51.496;7.210;2023-11-21T14:10:45;10.40;99.90
2967;DHT22;1493;51.496;7.210;2023-11-21T14:13:16;10.50;99.90
2967;DHT22;1493;51.496;7.210;2023-11-21T14:15:43;10.30;99.90
2967;DHT22;1493;51.496;7.210;2023-11-21T14:18:12;10.30;99.90
2967;DHT22;1493;51.496;7.210;2023-11-21T14:20:43;10.30;99.90
2967;DHT22;1493;51.496;7.210;2023-11-21T14:23:10;10.30;99.90
2967;DHT22;1493;51.496;7.210;2023-11-21T14:25:41;10.30;99.90
2967;DHT22;1493;51.496;7.210;2023-11-21T14:28:08;10.30;99.90
2967;DHT22;1493;51.496;7.210;2023-11-21T14:30:37;10.30;99.90
2967;DHT22;1493;51.496;7.210;2023-11-21T14:33:05;10.30;99.90
2967;DHT22;1493;51.496;7.210;2023-11-21T14:35:34;10.40;99.90
2967;DHT22;1493;51.496;7.210;2023-11-21T14:38:02;10.40;99.90
2967;DHT22;1493;51.496;7.210;2023-11-21T14:40:30;10.40;99.90
2967;DHT22;1493;51.496;7.210;2023-11-21T14:43:00;10.40;99.90
2967;DHT22;1493;51.496;7.210;2023-11-21T14:45:27;10.40;99.90
2967;DHT22;1493;51.496;7.210;2023-11-21T14:47:55;10.30;99.90
2967;DHT22;1493;51.496;7.210;2023-11-21T14:50:32;10.20;99.90
2967;DHT22;1493;51.496;7.210;2023-11-21T14:53:18;10.10;99.90
2967;DHT22;1493;51.496;7.210;2023-11-21T14:56:08;10.20;99.90
2967;DHT22;1493;51.496;7.210;2023-11-21T14:58:36;10.10;99.90
2967;DHT22;1493;51.496;7.210;2023-11-21T15:01:04;10.00;99.90
2967;DHT22;1493;51.496;7.210;2023-11-21T15:03:31;9.90;99.90
2967;DHT22;1493;51.496;7.210;2023-11-21T15:06:15;10.00;99.90
2967;DHT22;1493;51.496;7.210;2023-11-21T15:08:56;9.90;99.90
2967;DHT22;1493;51.496;7.210;2023-11-21T15:11:54;9.80;99.90
2967;DHT22;1493;51.496;7.210;2023-11-21T15:14:26;9.90;99.90
2967;DHT22;1493;51.496;7.210;2023-11-21T15:16:57;9.80;99.90
2967;DHT22;1493;51.496;7.210;2023-11-21T15:19:25;9.80;99.90
2967;DHT22;1493;51.496;7.210;2023-11-21T15:21:53;9.80;99.90
2967;DHT22;1493;51.496;7.210;2023-11-21T15:24:20;9.80;99.90
2967;DHT22;1493;51.496;7.210;2023-11-21T15:26:47;9.70;99.90
2967;DHT22;1493;51.496;7.210;2023-11-21T15:29:14;9.70;99.90
2967;DHT22;1493;51.496;7.210;2023-11-21T15:31:44;9.80;99.90
2967;DHT22;1493;51.496;7.210;2023-11-21T15:34:15;9.80;99.90
2967;DHT22;1493;51.496;7.210;2023-11-21T15:36:45;9.70;99.90
2967;DHT22;1493;51.496;7.210;2023-11-21T15:39:14;9.70;99.90
2967;DHT22;1493;51.496;7.210;2023-11-21T15:41:44;9.60;99.90
2967;DHT22;1493;51.496;7.210;2023-11-21T15:44:10;9.60;99.90
2967;DHT22;1493;51.496;7.210;2023-11-21T15:46:37;9.60;99.90
2967;DHT22;1493;51.496;7.210;2023-11-21T15:49:08;9.60;99.90
2967;DHT22;1493;51.496;7.210;2023-11-21T15:51:38;9.50;99.90
2967;DHT22;1493;51.496;7.210;2023-11-21T15:54:06;9.40;99.90
2967;DHT22;1493;51.496;7.210;2023-11-21T15:56:33;9.30;99.90
2967;DHT22;1493;51.496;7.210;2023-11-21T15:59:01;9.30;99.90
2967;DHT22;1493;51.496;7.210;2023-11-21T16:01:29;9.30;99.90
2967;DHT22;1493;51.496;7.210;2023-11-21T16:03:56;9.20;99.90
2967;DHT22;1493;51.496;7.210;2023-11-21T16:06:27;9.20;99.90
2967;DHT22;1493;51.496;7.210;2023-11-21T16:08:56;9.10;99.90
2967;DHT22;1493;51.496;7.210;2023-11-21T16:11:24;9.00;99.90
2967;DHT22;1493;51.496;7.210;2023-11-21T16:13:51;9.00;99.90
2967;DHT22;1493;51.496;7.210;2023-11-21T16:16:21;8.90;99.90
2967;DHT22;1493;51.496;7.210;2023-11-21T16:18:48;8.80;99.90
2967;DHT22;1493;51.496;7.210;2023-11-21T16:21:15;8.60;99.90